Latest Weather Observations for Larapuna (Eddystone Point)

IDT60801

Issued at 5:31 am EST Friday 6 May 2016 (issued every 30 minutes, with the page automatically refreshed every 10 minutes)

About weather observations | Map of weather stations | Latest weather observations for TAS | Other Formats
Station Details ID: 092045 Name: LARAPUNA (EDDYSTONE POINT) Lat: -40.99 Lon: 148.35 Height: 19.7 m
Data from the previous 72 hours. | See also: Recent months at Larapuna (Eddystone Point)
Date/Time
EST
Temp
°C
App
Temp
°C
Dew
Point
Rel
Hum
%
Delta-T
°C
Wind Press
QNH
hPa
Press
MSL
hPa
Rain
since 9 am
mm
Dir
 
Spd
km/h
Gust
km/h
Spd
kts
Gust
kts
06/05:30am 17.7 7.5 11.9 69 3.2 NW 57 76 31 41 1007.4 1007.4 0.0
06/05:00am 17.6 7.6 12.1 70 3.0 NW 56 74 30 40 1007.5 1007.5 0.0
06/04:31am 17.6 7.4 11.9 69 3.1 NW 57 76 31 41 1007.6 1007.6 0.0
06/04:30am 17.6 7.4 11.9 69 3.1 NW 57 72 31 39 1007.6 1007.6 0.0
06/04:03am 17.4 8.2 12.1 71 2.9 NNW 52 70 28 38 1007.6 1007.6 0.0
06/04:00am 17.4 8.2 12.1 71 2.9 NNW 52 69 28 37 1007.7 1007.7 0.0
06/03:30am 17.5 8.6 11.8 69 3.1 NNW 50 70 27 38 1007.9 1007.9 0.0
06/03:04am 17.3 9.6 12.2 72 2.8 NNW 44 65 24 35 1008.2 1008.2 0.0
06/03:00am 17.4 9.9 12.1 71 2.9 NNW 43 59 23 32 1008.3 1008.3 0.0
06/02:30am 17.2 9.6 12.5 74 2.6 NNW 44 63 24 34 1008.5 1008.5 0.0
06/02:29am 17.1 9.5 12.4 74 2.6 NNW 44 63 24 34 1008.5 1008.5 0.0
06/02:00am 16.8 9.0 12.9 78 2.2 NNW 46 63 25 34 1008.5 1008.5 0.0
06/01:30am 16.7 9.3 13.0 79 2.1 NNW 44 56 24 30 1008.7 1008.7 0.0
06/01:00am 16.7 9.2 12.7 77 2.2 NNW 44 57 24 31 1008.7 1008.7 0.0
06/12:30am 16.9 8.8 12.2 74 2.6 NNW 46 61 25 33 1008.9 1008.9 0.0
06/12:00am 17.1 9.0 12.0 72 2.8 NNW 46 57 25 31 1009.1 1009.1 0.0
 
Date/Time
EST
Temp
°C
App
Temp
°C
Dew
Point
Rel
Hum
%
Delta-T
°C
Wind Press
QNH
hPa
Press
MSL
hPa
Rain
since 9 am
mm
Dir
 
Spd
km/h
Gust
km/h
Spd
kts
Gust
kts
05/11:53pm 17.3 8.7 11.6 69 3.1 NNW 48 65 26 35 1009.1 1009.1 0.0
05/11:30pm 17.4 7.2 11.4 68 3.3 NNW 56 70 30 38 1009.1 1009.1 0.0
05/11:11pm 17.2 9.0 11.7 70 3.0 N 46 65 25 35 1009.3 1009.3 0.0
05/11:00pm 16.7 9.3 12.5 76 2.3 N 43 54 23 29 1009.5 1009.5 0.0
05/10:30pm 17.4 8.0 11.4 68 3.3 NNW 52 65 28 35 1009.9 1009.9 0.0
05/10:00pm 17.3 8.3 11.6 69 3.1 NNW 50 61 27 33 1010.2 1010.2 0.0
05/09:40pm 16.8 10.0 11.9 73 2.7 N 39 57 21 31 1010.5 1010.5 0.0
05/09:30pm 16.7 10.1 12.5 76 2.3 N 39 54 21 29 1010.6 1010.6 0.0
05/09:00pm 16.8 9.7 12.3 75 2.5 N 41 52 22 28 1010.8 1010.8 0.0
05/08:30pm 17.0 9.3 11.5 70 3.0 NNW 43 56 23 30 1010.8 1010.8 0.0
05/08:00pm 16.9 9.2 11.4 70 3.0 NNW 43 54 23 29 1010.7 1010.7 0.0
05/07:30pm 16.5 9.2 11.6 73 2.7 NNW 41 54 22 29 1010.8 1010.8 0.0
05/07:00pm 16.5 9.4 12.3 76 2.3 NNW 41 52 22 28 1010.5 1010.5 0.0
05/06:30pm 16.5 9.4 12.1 75 2.4 NNW 41 54 22 29 1010.3 1010.3 0.0
05/06:00pm 16.5 9.8 12.3 76 2.3 NNW 39 54 21 29 1010.2 1010.2 0.0
05/05:30pm 16.5 8.5 12.3 76 2.3 NNW 46 59 25 32 1010.0 1010.0 0.0
05/05:00pm 16.6 9.2 12.4 76 2.3 NNW 43 56 23 30 1010.1 1010.1 0.0
05/04:30pm 17.0 8.9 10.6 66 3.4 NNW 44 67 24 36 1010.0 1010.0 0.0
05/04:00pm 17.1 8.6 10.7 66 3.4 NNW 46 65 25 35 1010.1 1010.1 0.0
05/03:30pm 17.3 8.4 10.7 65 3.5 NW 48 69 26 37 1010.2 1010.2 0.0
05/03:05pm 17.9 8.5 10.0 60 4.2 NW 50 69 27 37 1010.2 1010.2 0.0
05/03:00pm 17.9 8.1 10.0 60 4.2 NW 52 69 28 37 1010.2 1010.2 0.0
05/02:39pm 18.0 9.4 10.4 61 4.1 NW 46 65 25 35 1010.3 1010.3 0.0
05/02:30pm 18.0 9.0 10.1 60 4.2 NW 48 65 26 35 1010.4 1010.4 0.0
05/02:00pm 18.3 9.3 10.4 60 4.2 NW 48 67 26 36 1010.7 1010.7 0.0
05/01:30pm 18.4 8.2 10.0 58 4.5 NW 54 78 29 42 1011.0 1011.0 0.0
05/01:00pm 17.6 9.0 10.2 62 3.9 NW 46 67 25 36 1011.3 1011.3 0.0
05/12:30pm 17.8 9.5 10.2 61 4.0 NW 44 65 24 35 1011.6 1011.6 0.0
05/12:09pm 17.5 8.8 10.1 62 3.9 NW 46 65 25 35 1012.0 1012.0 0.0
05/12:00pm 17.7 9.5 10.3 62 3.9 NW 44 59 24 32 1012.1 1012.1 0.0
05/11:42am 17.4 8.0 10.1 62 3.9 NW 50 70 27 38 1012.4 1012.4 0.0
05/11:30am 17.7 7.9 10.1 61 4.0 NW 52 65 28 35 1012.5 1012.5 0.0
05/11:00am 17.1 10.0 10.9 67 3.3 NNW 39 59 21 32 1013.1 1013.1 0.0
05/10:40am 16.9 10.4 11.6 71 2.9 NNW 37 56 20 30 1013.2 1013.2 0.0
05/10:30am 16.9 9.9 11.2 69 3.1 NNW 39 56 21 30 1013.3 1013.3 0.0
05/10:00am 17.0 9.4 10.6 66 3.4 NNW 41 54 22 29 1013.3 1013.3 0.0
05/09:30am 17.1 9.4 11.4 69 3.1 NNW 43 61 23 33 1013.5 1013.5 0.0
05/09:05am 16.6 9.3 11.5 72 2.8 NNW 41 59 22 32 1013.6 1013.6 0.0
05/09:00am 16.7 8.9 11.2 70 3.0 NNW 43 59 23 32 1013.6 1013.6 0.4
05/08:32am 16.4 9.7 10.9 70 2.9 NNW 37 56 20 30 1013.5 1013.5 0.4
05/08:30am 16.4 9.7 10.9 70 2.9 NNW 37 50 20 27 1013.5 1013.5 0.4
05/08:00am 16.1 9.3 10.6 70 2.9 NNW 37 54 20 29 1013.4 1013.4 0.4
05/07:44am 16.0 8.7 10.3 69 3.0 NNW 39 57 21 31 1013.3 1013.3 0.4
05/07:30am 15.9 8.3 10.4 70 2.9 NNW 41 54 22 29 1013.0 1013.0 0.4
05/07:00am 15.8 8.3 11.0 73 2.6 NNW 41 59 22 32 1012.7 1012.7 0.4
05/06:59am 15.8 8.4 11.2 74 2.5 NNW 41 59 22 32 1012.7 1012.7 0.4
05/06:30am 15.8 9.0 10.6 71 2.8 NNW 37 50 20 27 1012.6 1012.6 0.4
05/06:00am 15.7 9.2 10.5 71 2.7 NW 35 46 19 25 1012.5 1012.5 0.4
05/05:30am 15.6 9.4 10.2 70 2.8 NW 33 48 18 26 1012.4 1012.4 0.4
05/05:01am 15.6 9.8 10.8 73 2.6 NW 32 50 17 27 1012.2 1012.2 0.4
05/05:00am 15.5 9.5 10.7 73 2.5 NW 33 50 18 27 1012.2 1012.2 0.4
05/04:30am 15.4 9.0 10.6 73 2.5 NW 35 46 19 25 1012.0 1012.0 0.4
05/04:14am 15.4 9.3 10.4 72 2.6 NNW 33 52 18 28 1011.9 1011.9 0.4
05/04:00am 15.4 7.7 10.2 71 2.7 NW 41 56 22 30 1011.8 1011.8 0.4
05/03:30am 15.3 8.3 10.1 71 2.7 NW 37 52 20 28 1011.9 1011.9 0.4
05/03:07am 15.5 7.5 10.3 71 2.7 NW 43 61 23 33 1011.5 1011.5 0.4
05/03:00am 15.4 7.7 10.2 71 2.7 NW 41 56 22 30 1011.6 1011.6 0.4
05/02:32am 15.2 7.5 10.0 71 2.7 NW 41 59 22 32 1011.6 1011.6 0.4
05/02:30am 15.3 7.2 10.1 71 2.7 NW 43 59 23 32 1011.6 1011.6 0.4
05/02:03am 15.0 6.8 9.8 71 2.7 NW 43 65 23 35 1011.7 1011.7 0.2
05/02:00am 15.0 7.4 10.4 74 2.4 NW 41 57 22 31 1011.7 1011.7 0.2
05/01:35am 15.4 7.3 10.2 71 2.7 NNW 43 63 23 34 1011.6 1011.6 0.2
05/01:30am 15.4 7.7 10.2 71 2.7 NNW 41 57 22 31 1011.7 1011.7 0.2
05/01:29am 15.4 8.1 10.2 71 2.7 NNW 39 57 21 31 1011.7 1011.7 0.2
05/01:00am 15.3 8.3 10.1 71 2.7 NNW 37 54 20 29 1011.9 1011.9 0.2
05/12:55am 15.2 8.6 10.0 71 2.7 NNW 35 54 19 29 1011.9 1011.9 0.2
05/12:30am 15.0 7.0 9.1 68 3.0 NW 41 56 22 30 1012.0 1012.0 0.2
05/12:08am 15.5 7.8 8.5 63 3.6 NNW 39 59 21 32 1011.8 1011.8 0.2
05/12:00am 15.5 8.1 8.5 63 3.6 NW 37 52 20 28 1011.9 1011.9 0.2
 
Date/Time
EST
Temp
°C
App
Temp
°C
Dew
Point
Rel
Hum
%
Delta-T
°C
Wind Press
QNH
hPa
Press
MSL
hPa
Rain
since 9 am
mm
Dir
 
Spd
km/h
Gust
km/h
Spd
kts
Gust
kts
04/11:30pm 15.3 7.9 8.3 63 3.5 NW 37 48 20 26 1012.1 1012.1 0.2
04/11:00pm 15.3 6.7 8.1 62 3.6 NNW 43 59 23 32 1012.0 1012.0 0.2
04/10:56pm 15.3 7.5 8.3 63 3.5 NNW 39 59 21 32 1011.9 1011.9 0.2
04/10:30pm 14.9 7.1 8.4 65 3.3 NW 39 54 21 29 1012.2 1012.2 0.2
04/10:00pm 14.6 6.0 8.3 66 3.2 NW 43 59 23 32 1012.2 1012.2 0.2
04/09:58pm 14.6 6.4 8.3 66 3.2 NW 41 59 22 32 1012.2 1012.2 0.2
04/09:30pm 14.6 6.4 8.3 66 3.2 NW 41 54 22 29 1012.2 1012.2 0.2
04/09:00pm 14.1 7.1 8.3 68 2.9 NW 35 50 19 27 1012.1 1012.1 0.2
04/08:30pm 13.8 6.3 8.0 68 2.9 NW 37 48 20 26 1012.0 1012.0 0.2
04/08:00pm 13.4 6.5 8.9 74 2.3 NW 35 46 19 25 1012.0 1012.0 0.2
04/07:30pm 12.5 5.6 8.8 78 1.9 NW 35 43 19 23 1011.7 1011.7 0.2
04/07:00pm 12.1 6.2 9.1 82 1.5 NW 30 39 16 21 1011.7 1011.7 0.2
04/06:35pm 12.0 5.5 9.0 82 1.5 NW 33 52 18 28 1011.7 1011.7 0.2
04/06:30pm 12.8 5.5 8.7 76 2.1 NW 37 52 20 28 1011.9 1011.9 0.2
04/06:00pm 12.8 7.1 6.8 67 2.9 NW 26 35 14 19 1011.5 1011.5 0.2
04/05:30pm 12.5 6.7 7.8 73 2.3 NW 28 37 15 20 1011.3 1011.3 0.2
04/05:00pm 11.9 7.1 8.7 81 1.6 WNW 24 35 13 19 1011.0 1011.0 0.2
04/04:30pm 12.5 5.8 8.0 74 2.2 NW 33 56 18 30 1010.7 1010.7 0.0
04/04:23pm 13.5 6.7 7.5 67 2.9 NW 33 56 18 30 1010.7 1010.7 0.0
04/04:00pm 14.0 7.3 7.5 65 3.2 NW 32 43 17 23 1010.2 1010.2 0.0
04/03:44pm 13.8 7.8 7.1 64 3.3 NW 28 46 15 25 1010.1 1010.1 0.0
04/03:30pm 13.7 7.7 7.0 64 3.3 WNW 28 39 15 21 1010.1 1010.1 0.0
04/03:00pm 14.1 8.6 7.6 65 3.2 NW 26 33 14 18 1010.1 1010.1 0.0
04/02:31pm 13.8 6.5 7.3 65 3.2 WNW 35 54 19 29 1010.2 1010.2 0.0
04/02:30pm 13.7 6.1 7.5 66 3.0 WNW 37 54 20 29 1010.3 1010.3 0.0
04/02:26pm 13.0 4.9 7.0 67 2.9 WNW 39 54 21 29 1010.3 1010.3 0.0
04/02:00pm 13.9 8.1 6.3 60 3.6 WNW 26 35 14 19 1010.1 1010.1 0.0
04/01:30pm 14.5 8.4 6.8 60 3.7 WNW 28 43 15 23 1010.1 1010.1 0.0
04/01:00pm 14.9 7.7 5.1 52 4.6 WNW 32 46 17 25 1009.8 1009.8 0.0
04/12:30pm 14.5 6.6 4.2 50 4.7 WNW 35 56 19 30 1010.1 1010.1 0.0
04/12:03pm 13.6 6.3 4.7 55 4.1 WNW 32 52 17 28 1010.2 1010.2 0.0
04/12:00pm 13.4 6.2 4.8 56 4.0 WNW 32 46 17 25 1010.1 1010.1 0.0
04/11:47am 14.7 8.3 6.8 59 3.8 WNW 30 48 16 26 1010.2 1010.2 0.0
04/11:30am 13.8 7.6 6.2 60 3.6 WNW 28 35 15 19 1010.2 1010.2 0.0
04/11:00am 13.7 7.4 5.6 58 3.8 WNW 28 39 15 21 1010.2 1010.2 0.0
04/10:30am 13.8 10.0 5.9 59 3.8 NW 15 20 8 11 1010.2 1010.2 0.0
04/10:00am 13.2 11.2 6.3 63 3.3 NNW 6 9 3 5 1010.0 1010.0 0.0
04/09:30am 12.5 9.5 5.9 64 3.1 NNW 11 15 6 8 1009.7 1009.7 0.0
04/09:00am 11.2 7.6 5.1 66 2.8 NW 13 19 7 10 1009.6 1009.6 16.2
04/08:30am 10.6 7.6 4.1 64 2.9 WNW 9 15 5 8 1009.2 1009.2 16.2
04/08:00am 9.6 5.4 3.8 67 2.5 WNW 15 24 8 13 1008.8 1008.8 16.2
04/07:30am 8.3 5.2 3.6 72 2.0 WNW 9 15 5 8 1008.3 1008.3 16.2
04/07:00am 8.2 2.6 3.5 72 2.0 W 22 35 12 19 1007.2 1007.2 16.2
04/06:30am 7.8 2.6 3.7 75 1.8 WNW 20 28 11 15 1006.6 1006.6 16.2
04/06:00am 8.7 1.7 3.9 72 2.1 WNW 30 41 16 22 1005.8 1005.8 16.2
04/05:30am 7.6 2.6 3.8 77 1.6 W 19 24 10 13 1005.5 1005.5 16.2
04/05:00am 7.6 2.6 3.6 76 1.7 W 19 24 10 13 1005.0 1005.0 16.2
04/04:30am 8.4 3.3 4.2 75 1.8 WSW 20 24 11 13 1004.5 1004.5 16.2
04/04:00am 8.4 2.1 4.0 74 1.9 W 26 35 14 19 1003.6 1003.6 16.2
04/03:30am 8.2 2.1 4.8 79 1.5 W 26 35 14 19 1002.9 1002.9 16.2
04/03:00am 8.4 2.1 5.7 83 1.2 WNW 28 37 15 20 1002.2 1002.2 16.2
04/02:30am 8.7 2.1 6.0 83 1.2 NW 30 39 16 21 1002.2 1002.2 16.2
04/02:00am 7.8 2.2 5.4 85 1.1 WNW 24 33 13 18 1002.0 1002.0 16.2
04/01:30am 7.6 2.4 5.6 87 0.9 WNW 22 30 12 16 1001.7 1001.7 16.2
04/01:00am 7.9 2.0 5.7 86 1.0 WNW 26 33 14 18 1001.7 1001.7 16.2
04/12:30am 8.0 2.4 5.6 85 1.1 NW 24 32 13 17 1001.6 1001.6 16.2
04/12:00am 7.6 2.8 4.9 83 1.2 WNW 19 24 10 13 1001.1 1001.1 15.6
 
Date/Time
EST
Temp
°C
App
Temp
°C
Dew
Point
Rel
Hum
%
Delta-T
°C
Wind Press
QNH
hPa
Press
MSL
hPa
Rain
since 9 am
mm
Dir
 
Spd
km/h
Gust
km/h
Spd
kts
Gust
kts
03/11:30pm 7.8 1.0 4.9 82 1.3 W 30 43 16 23 1001.2 1001.2 15.6
03/11:00pm 8.9 2.7 6.0 82 1.3 WNW 28 48 15 26 1001.1 1001.1 15.4
03/10:30pm 8.7 4.1 5.8 82 1.3 WNW 19 24 10 13 1000.5 1000.5 15.0
03/10:00pm 9.1 3.6 6.0 81 1.4 WNW 24 39 13 21 1000.3 1000.3 15.0
03/09:30pm 9.7 3.7 5.3 74 2.0 WNW 26 37 14 20 1000.0 1000.0 15.0
03/09:07pm 9.7 2.9 4.9 72 2.2 W 30 57 16 31 999.2 999.2 15.0
03/09:04pm 9.7 4.0 4.9 72 2.2 WNW 24 57 13 31 999.2 999.2 15.0
03/09:00pm 9.4 5.3 6.1 80 1.5 WNW 17 30 9 16 999.6 999.6 15.0
03/08:30pm 9.5 5.1 6.4 81 1.4 WNW 19 26 10 14 998.6 998.6 15.0
03/08:00pm 9.2 5.7 7.0 86 1.0 WNW 15 20 8 11 997.9 997.9 15.0
03/07:30pm 9.8 4.6 7.2 84 1.2 WNW 24 37 13 20 996.9 996.9 15.0
03/07:00pm 10.2 4.3 7.4 83 1.3 WNW 28 41 15 22 997.1 997.1 14.8
03/06:30pm 10.4 4.7 8.2 86 1.1 WNW 28 41 15 22 995.8 995.8 14.8
03/06:00pm 10.6 5.3 8.5 87 1.0 WNW 26 37 14 20 994.8 994.8 14.8
03/05:30pm 11.1 6.9 9.7 91 0.7 WNW 22 41 12 22 994.0 994.0 14.8
03/05:14pm 11.2 5.6 10.0 92 0.6 W 30 48 16 26 993.3 993.3 14.6
03/05:00pm 11.2 7.5 10.0 92 0.6 WNW 20 30 11 16 992.7 992.7 14.6
03/04:39pm 11.2 5.6 10.0 92 0.6 W 30 48 16 26 992.0 992.0 14.6
03/04:30pm 11.4 4.8 10.1 92 0.7 W 35 50 19 27 992.1 992.1 14.4
03/04:22pm 11.5 6.3 10.4 93 0.6 W 28 48 15 26 991.9 991.9 13.8
03/04:11pm 11.4 6.2 10.3 93 0.6 WNW 28 44 15 24 991.6 991.6 13.4
03/04:00pm 12.0 9.1 10.9 93 0.6 WNW 17 24 9 13 991.4 991.4 12.0
03/03:30pm 12.0 7.3 10.7 92 0.7 NW 26 35 14 19 991.5 991.5 9.8
03/03:16pm 11.9 6.4 10.6 92 0.7 NW 30 48 16 26 991.7 991.7 9.2
03/03:00pm 12.2 6.8 10.9 92 0.7 NW 30 43 16 23 991.4 991.4 8.8
03/02:30pm 12.2 7.2 10.9 92 0.7 WNW 28 44 15 24 992.0 992.0 7.8
03/02:10pm 12.3 6.4 11.0 92 0.7 WNW 33 52 18 28 992.2 992.2 7.0
03/02:00pm 12.3 6.3 10.9 91 0.7 WNW 33 50 18 27 992.1 992.1 6.2
03/01:30pm 12.7 5.7 11.3 91 0.7 WNW 39 57 21 31 992.2 992.2 5.2
03/01:12pm 14.3 3.4 10.9 80 1.8 NW 59 82 32 44 992.2 992.2 2.4
03/01:00pm 16.5 5.6 12.3 76 2.3 NNW 61 87 33 47 991.2 991.2 2.0
03/12:30pm 15.5 4.3 12.4 82 1.7 NNW 63 89 34 48 992.1 992.1 2.0
03/12:00pm 15.2 5.2 12.5 84 1.5 NW 57 82 31 44 992.5 992.5 1.8
03/11:30am 14.8 3.2 12.3 85 1.4 NW 65 93 35 50 993.0 993.0 1.4
03/11:15am 15.9 5.9 12.1 78 2.1 NNW 56 89 30 48 992.6 992.6 1.2
03/11:05am 16.7 5.3 11.8 73 2.7 NNW 63 87 34 47 992.9 992.9 0.6
03/11:00am 15.8 2.8 10.8 72 2.7 NNW 70 96 38 52 992.8 992.8 0.6
03/10:57am 16.6 3.9 11.3 71 2.9 NNW 69 96 37 52 993.0 993.0 0.6
03/10:55am 16.6 4.2 11.1 70 3.0 NNW 67 96 36 52 992.8 992.8 0.6
03/10:30am 17.1 6.1 11.8 71 2.9 NNW 61 80 33 43 993.1 993.1 0.6
03/10:00am 16.8 6.1 11.5 71 2.9 NNW 59 83 32 45 993.6 993.6 0.6
03/09:30am 15.5 4.6 12.3 81 1.7 NNW 61 93 33 50 994.1 994.1 0.4
03/09:00am 17.1 5.6 11.6 70 3.0 NNW 63 83 34 45 994.3 994.3 0.4
03/08:30am 17.2 5.6 11.0 67 3.3 NNW 63 89 34 48 994.4 994.4 0.4
03/08:00am 17.5 6.3 11.1 66 3.5 NNW 61 85 33 46 994.6 994.6 0.4
03/07:30am 17.5 6.1 10.4 63 3.8 NNW 61 83 33 45 994.9 994.9 0.4
03/07:00am 17.3 6.9 10.7 65 3.6 NW 56 80 30 43 995.5 995.5 0.4
03/06:30am 17.2 4.6 10.3 64 3.7 NW 67 87 36 47 995.2 995.2 0.4
03/06:00am 16.4 3.5 10.5 68 3.2 NW 69 93 37 50 995.2 995.2 0.4

Other Formats:

Comma delimited format used in spreadsheet applications
http://www.bom.gov.au/fwo/IDT60801/IDT60801.94983.axf

JavaScript Object Notation format (JSON) in row-major order
http://www.bom.gov.au/fwo/IDT60801/IDT60801.94983.json